Weather observations for the past three days for
Albion Municipal Airport
Metric (Imperial)
Date Time (cdt) Wind (kph) Vis. (km) Weather Sky Cond. Temperature (ºC) Relative Humidity Wind Chill (°C) Heat Index (°C) Pressure Precipitation (cm)
Air Dwpt 6 hour altimeter (cm) sea level (mb) 1 hr 3 hr 6 hr
Max. Min.
05 12:55 E 26 G 41 16.09 Fair CLR 28.5 17.5 28.5 21.4 51% 29 76.28 0.0
05 12:35 E 22 G 30 16.09 Fair CLR 28.2 18.5 56% 29 76.28 0.0
05 12:15 E 22 G 43 16.09 Thunderstorm in Vicinity CLR 27.6 18.1 56% 29 76.3 0.0
05 11:55 E 26 G 44 16.09 Fair CLR 27.3 17.9 57% 28 76.3 0.0
05 11:15 E 30 G 41 16.09 Fair CLR 26.5 20.3 69% 28 76.3 0.0
05 10:55 E 31 G 44 16.09 Partly Cloudy SCT015 26.3 20.7 71% 28 76.3 0.0
05 10:35 NE 24 G 39 16.09 Mostly Cloudy BKN015 BKN020 25.3 20.8 76% 26 76.3 0.0
05 10:15 NE 26 G 39 16.09 Overcast SCT006 OVC012 25.2 21.9 82% 26 76.28 0.0
05 09:55 NE 24 G 33 16.09 Overcast OVC008 25.2 22.6 86% 26 76.28 0.0
05 09:35 NE 20 G 31 16.09 Partly Cloudy SCT010 SCT032 SCT042 25.5 22.5 84% 27 76.23 0.0
05 09:15 NE 17 16.09 Partly Cloudy SCT032 SCT042 SCT055 25.7 21.5 78% 27 76.23 0.0
05 08:55 NE 19 16.09 Fair CLR 25.7 21.2 76% 27 76.17 0.0
05 08:35 NE 13 16.09 Fair CLR 25.8 21.1 75% 27 76.17 0.0
05 08:15 NE 6 16.09 Fair CLR 25.3 20.3 74% 26 76.12 0.0
05 07:55 N 13 G 33 16.09 Fair CLR 24.8 20 75% 26 76.12 0.0
05 07:35 E 6 16.09 Thunderstorm in Vicinity CLR 22.5 20 86% 76.02 0.0
05 07:15 SE 7 16.09 Fair CLR 21.6 19.9 90% 76 0.0
05 06:55 S 7 16.09 Fair CLR 22.1 19.9 24.3 21.2 87% 76 0.0
05 06:35 SE 6 16.09 Fair CLR 22.8 20 84% 75.97 0.0
05 06:15 SE 6 16.09 Fair CLR 21.5 20.2 92% 75.92 0.0
05 05:55 S 9 16.09 Fair CLR 21.8 20.3 91% 75.95 0.0
05 05:35 SE 7 16.09 Fair CLR 22.6 20.7 89% 76 0.0
05 05:15 E 7 16.09 Partly Cloudy SCT120 23 20.6 86% 76 0.0
05 04:55 SE 9 16.09 Partly Cloudy SCT120 22.6 20.6 89% 75.97 0.0
05 04:35 SE 9 16.09 Fair CLR 23.1 20.6 86% 75.97 0.0
05 04:15 SE 9 16.09 Fair CLR 22.7 20.7 89% 75.95 0.0
05 03:55 SE 6 16.09 Fair CLR 22.5 20.8 90% 75.95 0.0
05 03:35 SE 7 16.09 Fair CLR 23.1 21.1 89% 75.97 0.0
05 03:15 SE 7 16.09 Fair CLR 24 21.3 85% 24 75.97 0.0
05 02:55 Calm 16.09 Fair CLR 23 21.5 91% 76 0.0
05 02:35 SE 6 16.09 Fair CLR 23.2 21.6 91% 76 0.0
05 02:15 SE 7 16.09 Fair CLR 23.3 21.7 91% 76 0.0
05 01:55 SE 7 16.09 Fair CLR 23.8 21.9 89% 76.02 0.0
05 01:35 SE 6 16.09 Fair CLR 24.1 22.1 89% 24 76.02 0.0
05 01:15 SE 6 16.09 Fair CLR 24.2 22.4 90% 24 76.02 0.0
05 00:55 Calm 16.09 Fair CLR 24.4 22.4 31 23.2 89% 24 76.05 0.0
05 00:35 Calm 16.09 Fair CLR 23.2 21.9 92% 76.05 0.0
05 00:15 SE 7 16.09 Fair CLR 24.1 22.4 90% 24 76.05 0.0
04 23:55 Calm 16.09 Fair CLR 23.8 22.3 91% 76.05 0.0
04 23:35 Calm 16.09 Fair CLR 24.1 22.4 90% 24 76.02 0.0
04 23:15 Calm 16.09 Fair CLR 24.7 22.6 88% 25 76.02 0.0
04 22:55 E 7 16.09 Fair CLR 25.8 22.8 84% 27 76.02 0.0
04 22:35 SE 6 16.09 Fair CLR 24.7 22.6 88% 25 76.02 0.0
04 22:15 Calm 16.09 Fair CLR 24.5 23 91% 25 76.02 0.0
04 21:55 Calm 16.09 Fair CLR 25.8 23 85% 27 76.02 0.0
04 21:35 Calm 16.09 Fair CLR 25.1 23 88% 26 76 0.0
04 20:55 Calm 16.09 Fair CLR 26 23.4 86% 28 75.97 0.0
04 20:35 E 6 16.09 Fair CLR 26.8 23.6 83% 30 75.97 0.0
04 20:15 E 7 16.09 Fair CLR 27.3 23.7 81% 31 75.97 0.0
04 19:55 Calm 16.09 Fair CLR 28.9 23.6 73% 33 75.97 0.0
04 19:35 SE 7 16.09 Fair CLR 29.5 24 72% 34 75.95 0.0
04 19:15 SE 7 16.09 Fair CLR 30.5 23.8 67% 36 75.97 0.0
04 18:55 SE 11 16.09 Fair CLR 31.4 23.2 33 30.6 62% 36 75.95 0.0
04 18:35 SE 11 16.09 Fair CLR 32.2 22.9 58% 37 75.92 0.0
04 18:15 E 13 16.09 Fair CLR 32.3 23.1 58% 37 75.92 0.0
04 17:55 E 9 16.09 Fair CLR 32 23.1 59% 37 75.92 0.0
04 17:35 SE 13 16.09 Fair CLR 31.8 22.8 59% 36 75.92 0.0
04 17:15 SE 15 16.09 Fair CLR 32.1 22.8 58% 37 75.95 0.0
04 16:55 SE 17 16.09 Fair CLR 33 23.1 56% 38 75.95 0.0
04 16:35 SE 9 16.09 Fair CLR 31 22.9 62% 35 75.97 0.0
04 16:15 SE 7 16.09 Fair CLR 30.8 22.1 60% 34 75.97 0.0
04 15:55 SE 7 16.09 Fair CLR 30.8 23 63% 35 75.97 0.0
04 15:35 SE 11 16.09 Fair CLR 31.2 22.8 61% 36 76 0.0
04 15:15 SE 15 16.09 Fair CLR 31.6 22.5 59% 36 76 0.0
04 14:55 S 13 16.09 Fair CLR 32 22.2 56% 36 76 0.0
04 14:35 SE 15 16.09 Fair CLR 32 22.2 56% 36 75.97 0.0
04 14:15 SE 11 16.09 Fair CLR 32.4 21.8 54% 36 75.97 0.0
04 13:55 SE 9 16.09 Fair CLR 32.4 21.8 54% 36 76 0.0
04 13:35 SE 9 16.09 Fair CLR 31.9 21.1 53% 35 76 0.0
04 13:15 SE 7 16.09 Fair CLR 32 22.1 56% 36 76 0.0
04 12:55 SW 11 16.09 Fair CLR 31.6 22.4 31.6 18.3 58% 36 76.02 0.0
04 12:35 S 7 16.09 Fair CLR 31.3 22 58% 35 76.02 0.0
04 12:15 SE 9 16.09 Fair CLR 31 21.2 56% 34 76.02 0.0
04 11:55 S 6 16.09 Fair CLR 30.1 20.9 58% 33 76 0.0
04 11:35 SE 7 16.09 Fair CLR 29.9 20.9 59% 32 76 0.0
04 11:15 SE 6 16.09 Fair CLR 29.4 20.8 60% 32 76 0.0
04 10:55 S 6 16.09 Fair CLR 28.6 20.7 62% 31 76 0.0
04 10:35 Calm 16.09 Fair CLR 28.5 20 60% 30 76 0.0
04 10:15 Calm 16.09 Fair CLR 28 19.6 60% 29 76 0.0
04 09:55 Calm 16.09 Fair CLR 27.4 21.4 70% 30 76 0.0
04 09:35 Calm 16.09 Fair CLR 25.4 22 82% 27 76 0.0
04 09:15 Calm 16.09 Fair CLR 23.9 21.2 85% 24 76 0.0
04 08:55 Calm 16.09 Fair CLR 22.6 20.6 89% 75.97 0.0
04 08:35 Calm 16.09 Fair CLR 21.3 19.7 91% 75.97 0.0
04 08:15 Calm 16.09 Fair CLR 20.2 18.9 92% 75.97 0.0
04 07:55 Calm 11.27 Fair CLR 19.7 18.6 93% 75.95 0.0
04 07:35 Calm 8.05 Fog/Mist CLR 19 18.1 95% 75.92 0.0
04 07:15 SE 6 8.05 Fog/Mist CLR 18.7 17.8 95% 75.92 0.0
04 06:55 Calm 11.27 Fair CLR 19 17.9 24.1 19 93% 75.9 0.0
04 06:35 Calm 11.27 Fair CLR 19.4 18.4 94% 75.87 0.0
04 06:15 Calm 16.09 Fair CLR 20.1 18.9 93% 75.87 0.0
04 05:55 Calm 16.09 Fair CLR 20.2 18.8 92% 75.87 0.0
04 05:35 Calm 16.09 Fair CLR 21.2 19.4 90% 75.84 0.0
04 05:15 NW 7 16.09 Fair CLR 21.1 19.5 91% 75.84 0.0
04 04:55 Calm 16.09 Fair CLR 21.8 19.6 87% 75.84 0.0
04 04:15 Calm 16.09 Fair CLR 21.8 19.5 87% 75.82 0.0
04 03:55 Calm 16.09 Fair CLR 23 19.6 81% 75.79 0.0
04 03:35 Calm 16.09 Fair CLR 22.4 19.6 84% 75.79 0.0
04 03:15 Calm 16.09 Fair CLR 23.2 19.5 80% 75.77 0.0
04 02:55 Calm 16.09 Fair CLR 23.7 19.7 78% 75.77 0.0
04 02:35 SE 6 16.09 Fair CLR 23.8 19.9 79% 75.77 0.0
04 02:15 Calm 16.09 Fair CLR 23.8 20.2 80% 75.77 0.0
04 01:55 NW 6 16.09 Fair CLR 21.8 19.9 89% 75.77 0.0
04 01:35 Calm 16.09 Fair CLR 22.5 20.5 89% 75.77 0.0
04 01:15 Calm 16.09 Fair CLR 22.9 20.6 87% 75.77 0.0
04 00:55 SE 7 16.09 Fair CLR 23.9 21.2 32.3 22.6 85% 24 75.74 0.0
04 00:35 Calm 16.09 Fair CLR 23.1 21.3 90% 75.74 0.0
04 00:15 Calm 16.09 Fair CLR 23.9 21.7 88% 24 75.74 0.0
03 23:55 Calm 16.09 Fair CLR 23.5 21.5 89% 75.74 0.0
03 23:35 Calm 16.09 Fair CLR 24.5 22 86% 25 75.74 0.0
03 23:15 Calm 16.09 Fair CLR 24.6 22 86% 25 75.74 0.0
03 22:55 Calm 16.09 Fair CLR 24.4 22.2 88% 25 75.77 0.0
03 22:35 Calm 16.09 Fair CLR 25 22.5 86% 26 75.77 0.0
03 22:15 Calm 16.09 Fair CLR 25 22.6 87% 26 75.77 0.0
03 21:55 Calm 16.09 Fair CLR 26.6 21.7 75% 28 75.77 0.0
03 21:35 Calm 16.09 Fair CLR 25.5 22.3 83% 27 75.74 0.0
03 21:15 Calm 16.09 Fair CLR 26.7 22.8 79% 29 75.74 0.0
03 20:55 Calm 16.09 Fair CLR 26.9 21.8 74% 29 75.74 0.0
03 20:35 E 9 16.09 Fair CLR 27.8 21.6 69% 30 75.72 0.0
03 20:15 Calm 16.09 Fair CLR 27.5 22.3 73% 30 75.72 0.0
03 19:55 Calm 16.09 Fair CLR 29.8 22.7 66% 34 75.69 0.0
03 19:35 Calm 16.09 Fair CLR 31.7 21.7 55% 35 75.69 0.0
03 19:15 Calm 16.09 Fair CLR 31.8 22 56% 36 75.69 0.0
03 18:55 Calm 16.09 Fair CLR 32.5 21.4 33.2 31.4 52% 36 75.69 0.0
03 18:35 Calm 16.09 Fair CLR 32.6 21.4 52% 36 75.69 0.0
03 18:15 SW 6 16.09 Fair CLR 33 21 49% 36 75.67 0.0
03 17:55 SW 7 16.09 Fair CLR 33.1 20.3 47% 36 75.67 0.0
03 17:35 SW 6 16.09 Fair CLR 33.2 20.6 48% 36 75.67 0.0
03 17:15 SW 9 16.09 Fair CLR 33.1 20.5 48% 36 75.67 0.0
03 16:55 SW 6 16.09 Fair CLR 33.1 20.5 48% 36 75.67 0.0
03 16:35 SW 6 16.09 Fair CLR 32.8 20.3 48% 35 75.67 0.0
03 16:15 S 11 16.09 Fair CLR 32.9 20.1 47% 35 75.69 0.0
03 15:55 S 13 16.09 Fair CLR 32.8 20.2 47% 35 75.69 0.0
03 15:35 S 15 16.09 Fair CLR 32.6 20 47% 35 75.72 0.0
03 15:15 SW 11 16.09 Fair CLR 32.5 20.5 49% 35 75.72 0.0
03 14:55 SW 13 16.09 Fair CLR 32 19.5 48% 34 75.72 0.0
03 14:35 SW 9 16.09 Fair CLR 32.3 19.2 46% 34 75.74 0.0
03 14:15 S 15 16.09 Fair CLR 32.1 19 46% 34 75.74 0.0
03 13:55 S 17 16.09 Fair CLR 32.2 19.6 47% 34 75.74 0.0
03 13:15 SW 15 16.09 Fair CLR 32 19.7 48% 34 75.74 0.0
03 12:55 SW 11 16.09 Fair CLR 31.2 18.4 31.5 22.2 46% 32 75.77 0.0
03 12:35 SW 19 16.09 Fair CLR 31.5 19 47% 33 75.79 0.0
03 12:15 SW 17 16.09 Fair CLR 30.9 18.4 47% 32 75.77 0.0
03 11:55 SW 17 16.09 Fair CLR 31 18.5 47% 32 75.77 0.0
03 11:35 S 19 16.09 Fair CLR 30.6 18.8 49% 32 75.77 0.0
03 11:15 S 19 16.09 Fair CLR 30.2 18.6 50% 31 75.74 0.0
03 10:55 S 15 16.09 Fair CLR 29.5 18.3 51% 30 75.74 0.0
03 10:35 S 9 16.09 Fair CLR 29 18.8 54% 30 75.77 0.0
03 10:15 S 9 16.09 Fair CLR 28.4 18.6 55% 29 75.77 0.0
03 09:55 S 9 16.09 Fair CLR 27.5 18.8 59% 29 75.74 0.0
03 09:35 S 7 16.09 Thunderstorm in Vicinity CLR 26.8 18.5 60% 28 75.77 0.0
03 09:15 S 7 16.09 Fair CLR 26.1 18.1 61% 27 75.79 0.0
03 08:55 SW 6 16.09 Fair CLR 24.8 17.7 65% 26 75.79 0.0
03 08:35 SW 6 16.09 Fair CLR 24 17.5 67% 25 75.79 0.0
03 08:15 Calm 16.09 Fair CLR 23.2 17.4 70% 75.79 0.0
03 07:55 Calm 16.09 Fair CLR 22.5 17.5 73% 75.79 0.0
03 07:35 Calm 16.09 Fair CLR 22.3 17.2 73% 75.77 0.0
03 07:15 SW 9 16.09 Fair CLR 23 17.1 70% 75.74 0.0
03 06:55 SW 13 G 28 16.09 Fair CLR 23 17.3 24 22.8 70% 75.77 0.0
03 06:35 SW 7 16.09 Fair CLR 23.2 17.5 70% 75.69 0.0
03 06:15 SW 9 16.09 Fair CLR 23.2 17.5 70% 75.69 0.0
03 05:55 S 13 16.09 Fair CLR 23.4 17.6 70% 75.69 0.0
03 05:35 S 15 16.09 Fair CLR 23.3 17.7 71% 75.69 0.0
03 05:15 S 11 16.09 Fair CLR 23.1 17.9 73% 75.69 0.0
03 04:55 S 7 16.09 Fair CLR 23.2 17.9 72% 75.69 0.0
03 04:35 S 9 16.09 Fair CLR 23.2 18 73% 75.69 0.0
03 04:15 S 7 16.09 Fair CLR 23.3 18 72% 75.69 0.0
03 03:55 S 6 16.09 Fair CLR 23.5 18 71% 75.69 0.0
03 03:35 S 9 16.09 Fair CLR 24 18 69% 25 75.69 0.0
03 03:15 S 7 16.09 Fair CLR 23.5 18 71% 75.69 0.0
03 02:55 S 9 16.09 Fair CLR 23.2 18.2 74% 75.69 0.0
03 02:35 SE 9 16.09 Fair CLR 23.5 18.1 72% 75.72 0.0
03 02:15 SE 7 16.09 Fair CLR 23.5 18.1 72% 75.72 0.0
03 01:55 SE 9 16.09 Fair CLR 23.6 18.4 73% 75.74 0.0
03 01:35 SE 9 16.09 Fair CLR 23.9 18.6 72% 25 75.74 0.0
03 01:15 SE 9 16.09 Fair CLR 24 18.7 72% 25 75.74 0.0
03 00:55 SE 9 16.09 Fair CLR 24.1 18.8 31.2 23.9 72% 25 75.74 0.0
03 00:35 SE 9 16.09 Fair CLR 24 19 74% 25 75.74 0.0
03 00:15 SE 7 16.09 Fair CLR 24.3 19 72% 25 75.74 0.0
02 23:55 SE 7 16.09 Fair CLR 24.1 19.5 76% 25 75.74 0.0
02 23:35 SE 9 16.09 Fair CLR 24.6 20.1 76% 25 75.74 0.0
02 23:15 SE 11 16.09 Fair CLR 25.5 21 76% 27 75.74 0.0
02 22:55 SE 9 16.09 Fair CLR 26 21.1 74% 27 75.74 0.0
02 22:35 SE 9 16.09 Fair CLR 26.5 21.6 75% 28 75.74 0.0
02 22:15 SE 9 16.09 Partly Cloudy SCT100 27.1 21.7 72% 29 75.74 0.0
02 21:55 SE 9 16.09 Mostly Cloudy BKN100 27.5 21.7 71% 30 75.74 0.0
02 21:35 SE 9 16.09 Mostly Cloudy BKN100 27.9 21.8 69% 30 75.74 0.0
02 21:15 E 7 16.09 Partly Cloudy SCT100 27.1 21.9 73% 29 75.74 0.0
02 20:55 Calm 16.09 Partly Cloudy SCT100 27.4 22.3 74% 30 75.72 0.0
02 20:35 Calm 16.09 Partly Cloudy SCT100 27.1 22.7 77% 30 75.72 0.0
02 20:15 E 6 16.09 Fair CLR 28.4 22.4 70% 31 75.72 0.0
02 19:55 E 6 16.09 Fair CLR 30 22 62% 33 75.72 0.0
02 19:35 SE 6 16.09 Fair CLR 29.6 23.2 69% 34 75.72 0.0
02 19:15 SE 7 16.09 Fair CLR 30.6 23.6 66% 36 75.74 0.0
02 18:55 SE 9 16.09 Fair CLR 31.5 22.8 34.1 31.5 60% 36 75.74 0.0
02 18:35 S 9 16.09 Fair CLR 32.3 22 55% 36 75.74 0.0
02 18:15 S 11 16.09 Fair CLR 32.8 21.4 51% 36 75.74 0.0
02 17:55 S 13 16.09 Fair CLR 33 21.1 50% 36 75.74 0.0
02 17:35 S 15 16.09 Fair CLR 33.1 21.5 51% 37 75.77 0.0
02 17:15 S 15 16.09 Fair CLR 33.5 20.7 47% 36 75.77 0.0
02 16:55 S 20 16.09 Fair CLR 33.3 21.3 49% 37 75.79 0.0
02 16:35 S 20 16.09 Fair CLR 33.4 21.5 50% 37 75.79 0.0
02 16:15 S 17 16.09 Fair CLR 34 20.3 45% 37 75.79 0.0
02 15:55 S 15 16.09 Fair CLR 33.5 21 48% 37 75.82 0.0
02 15:35 S 17 16.09 Fair CLR 33.7 20.3 45% 36 75.84 0.0
02 15:15 S 19 16.09 Fair CLR 34.1 20.9 46% 37 75.84 0.0
02 14:55 S 11 16.09 Fair CLR 33.3 20.3 46% 36 75.84 0.0
Date Time (cdt) Wind (kph) Vis. (km) Weather Sky Cond. Air Dwpt Max. Min. Relative Humidity Wind Chill (°C) Heat Index (°C) altimeter (cm) sea level (mb) 1 hr 3 hr 6 hr
6 hour
Temperature (ºC) Pressure Precipitation (cm)